sensor_id;sensor_type;location;lat;lon;timestamp;pressure;altitude;pressure_sealevel;temperature;humidity
55077;BME280;40971;44.702;11.030;2023-12-14T00:01:16;100467.44;;;5.86;100.00
55077;BME280;40971;44.702;11.030;2023-12-14T00:11:17;100484.72;;;5.87;100.00
55077;BME280;40971;44.702;11.030;2023-12-14T00:21:19;100514.81;;;5.91;100.00
55077;BME280;40971;44.702;11.030;2023-12-14T00:31:21;100508.88;;;5.89;100.00
55077;BME280;40971;44.702;11.030;2023-12-14T00:41:23;100536.63;;;6.00;100.00
55077;BME280;40971;44.702;11.030;2023-12-14T00:51:25;100525.63;;;5.96;100.00
55077;BME280;40971;44.702;11.030;2023-12-14T01:01:26;100532.78;;;5.94;100.00
55077;BME280;40971;44.702;11.030;2023-12-14T01:11:27;100552.94;;;5.92;100.00
55077;BME280;40971;44.702;11.030;2023-12-14T01:21:29;100544.88;;;5.85;100.00
55077;BME280;40971;44.702;11.030;2023-12-14T01:31:31;100576.69;;;5.89;100.00
55077;BME280;40971;44.702;11.030;2023-12-14T01:41:32;100576.28;;;6.03;100.00
55077;BME280;40971;44.702;11.030;2023-12-14T01:51:33;100581.69;;;6.11;100.00
55077;BME280;40971;44.702;11.030;2023-12-14T02:01:42;100604.31;;;6.01;100.00
55077;BME280;40971;44.702;11.030;2023-12-14T02:11:45;100595.97;;;6.17;100.00
55077;BME280;40971;44.702;11.030;2023-12-14T02:21:47;100592.50;;;6.07;100.00
55077;BME280;40971;44.702;11.030;2023-12-14T02:31:48;100593.34;;;6.07;100.00
55077;BME280;40971;44.702;11.030;2023-12-14T02:41:50;100599.66;;;6.05;100.00
55077;BME280;40971;44.702;11.030;2023-12-14T02:51:51;100602.97;;;6.16;100.00
55077;BME280;40971;44.702;11.030;2023-12-14T03:01:52;100609.13;;;6.15;100.00
55077;BME280;40971;44.702;11.030;2023-12-14T03:11:53;100612.56;;;6.06;100.00
55077;BME280;40971;44.702;11.030;2023-12-14T03:21:55;100619.03;;;6.21;100.00
55077;BME280;40971;44.702;11.030;2023-12-14T03:31:57;100621.22;;;6.35;100.00
55077;BME280;40971;44.702;11.030;2023-12-14T03:42:00;100610.09;;;6.33;100.00
55077;BME280;40971;44.702;11.030;2023-12-14T03:52:02;100627.53;;;6.42;100.00
55077;BME280;40971;44.702;11.030;2023-12-14T04:02:05;100637.84;;;6.34;100.00
55077;BME280;40971;44.702;11.030;2023-12-14T04:12:06;100643.88;;;6.35;100.00
55077;BME280;40971;44.702;11.030;2023-12-14T04:22:08;100653.22;;;6.37;100.00
55077;BME280;40971;44.702;11.030;2023-12-14T04:32:10;100669.75;;;6.48;100.00
55077;BME280;40971;44.702;11.030;2023-12-14T04:42:13;100699.97;;;6.40;100.00
55077;BME280;40971;44.702;11.030;2023-12-14T04:52:14;100704.91;;;6.43;100.00
55077;BME280;40971;44.702;11.030;2023-12-14T05:02:15;100698.72;;;6.54;100.00
55077;BME280;40971;44.702;11.030;2023-12-14T05:12:20;100712.59;;;6.55;100.00
55077;BME280;40971;44.702;11.030;2023-12-14T05:22:21;100725.25;;;6.50;100.00
55077;BME280;40971;44.702;11.030;2023-12-14T05:32:22;100737.06;;;6.44;100.00
55077;BME280;40971;44.702;11.030;2023-12-14T05:42:24;100752.97;;;6.31;100.00
55077;BME280;40971;44.702;11.030;2023-12-14T05:52:26;100781.19;;;6.57;100.00
55077;BME280;40971;44.702;11.030;2023-12-14T06:02:28;100796.34;;;6.72;100.00
55077;BME280;40971;44.702;11.030;2023-12-14T06:12:30;100806.22;;;6.69;100.00
55077;BME280;40971;44.702;11.030;2023-12-14T06:22:33;100826.16;;;6.60;100.00
55077;BME280;40971;44.702;11.030;2023-12-14T06:32:35;100841.69;;;6.71;100.00
55077;BME280;40971;44.702;11.030;2023-12-14T06:42:37;100851.59;;;6.68;100.00
55077;BME280;40971;44.702;11.030;2023-12-14T06:52:39;100861.66;;;6.72;100.00
55077;BME280;40971;44.702;11.030;2023-12-14T07:02:40;100872.50;;;6.68;100.00
55077;BME280;40971;44.702;11.030;2023-12-14T07:12:41;100878.69;;;6.67;100.00
55077;BME280;40971;44.702;11.030;2023-12-14T07:22:44;100888.56;;;6.73;100.00
55077;BME280;40971;44.702;11.030;2023-12-14T07:32:46;100916.94;;;6.77;100.00
55077;BME280;40971;44.702;11.030;2023-12-14T07:42:47;100925.22;;;6.92;100.00
55077;BME280;40971;44.702;11.030;2023-12-14T07:52:51;100940.38;;;7.08;100.00
55077;BME280;40971;44.702;11.030;2023-12-14T08:02:53;100958.44;;;7.20;100.00
55077;BME280;40971;44.702;11.030;2023-12-14T08:12:54;100975.38;;;7.35;100.00
55077;BME280;40971;44.702;11.030;2023-12-14T08:22:56;100981.16;;;7.48;100.00
55077;BME280;40971;44.702;11.030;2023-12-14T08:32:58;100989.16;;;7.76;100.00
55077;BME280;40971;44.702;11.030;2023-12-14T08:43:00;101005.13;;;7.92;100.00
55077;BME280;40971;44.702;11.030;2023-12-14T08:53:01;101011.31;;;7.91;100.00
55077;BME280;40971;44.702;11.030;2023-12-14T09:03:05;101042.88;;;7.89;100.00
55077;BME280;40971;44.702;11.030;2023-12-14T09:13:10;101054.03;;;8.01;100.00
55077;BME280;40971;44.702;11.030;2023-12-14T09:23:12;101069.47;;;8.04;100.00
55077;BME280;40971;44.702;11.030;2023-12-14T09:33:14;101079.81;;;8.05;100.00
55077;BME280;40971;44.702;11.030;2023-12-14T09:43:17;101101.28;;;8.18;100.00
55077;BME280;40971;44.702;11.030;2023-12-14T09:53:20;101114.00;;;8.23;100.00
55077;BME280;40971;44.702;11.030;2023-12-14T10:03:27;101112.91;;;8.35;100.00
55077;BME280;40971;44.702;11.030;2023-12-14T10:13:38;101121.16;;;8.50;100.00
55077;BME280;40971;44.702;11.030;2023-12-14T10:23:41;101112.31;;;8.60;100.00
55077;BME280;40971;44.702;11.030;2023-12-14T10:33:42;101136.53;;;8.91;100.00
55077;BME280;40971;44.702;11.030;2023-12-14T10:43:47;101123.50;;;9.09;100.00
55077;BME280;40971;44.702;11.030;2023-12-14T10:53:51;101123.13;;;9.04;100.00
55077;BME280;40971;44.702;11.030;2023-12-14T11:03:56;101130.69;;;9.07;100.00
55077;BME280;40971;44.702;11.030;2023-12-14T11:13:58;101133.72;;;9.12;100.00
55077;BME280;40971;44.702;11.030;2023-12-14T11:24:01;101142.16;;;9.43;100.00
55077;BME280;40971;44.702;11.030;2023-12-14T11:34:04;101146.91;;;9.84;100.00
55077;BME280;40971;44.702;11.030;2023-12-14T11:44:09;101158.13;;;9.49;100.00
55077;BME280;40971;44.702;11.030;2023-12-14T11:54:13;101153.03;;;9.48;100.00
55077;BME280;40971;44.702;11.030;2023-12-14T12:04:15;101159.16;;;10.11;100.00
55077;BME280;40971;44.702;11.030;2023-12-14T12:14:20;101161.94;;;10.09;100.00
55077;BME280;40971;44.702;11.030;2023-12-14T12:24:24;101157.31;;;10.21;100.00
55077;BME280;40971;44.702;11.030;2023-12-14T12:34:27;101163.34;;;10.04;100.00
55077;BME280;40971;44.702;11.030;2023-12-14T12:44:30;101157.34;;;10.38;100.00
55077;BME280;40971;44.702;11.030;2023-12-14T12:54:32;101159.09;;;10.56;100.00
55077;BME280;40971;44.702;11.030;2023-12-14T13:04:37;101158.63;;;11.03;99.32
55077;BME280;40971;44.702;11.030;2023-12-14T13:14:41;101167.00;;;10.99;98.08
55077;BME280;40971;44.702;11.030;2023-12-14T13:24:45;101185.16;;;11.10;96.44
55077;BME280;40971;44.702;11.030;2023-12-14T13:34:48;101198.41;;;10.57;97.41
55077;BME280;40971;44.702;11.030;2023-12-14T13:44:52;101211.66;;;10.56;99.86
55077;BME280;40971;44.702;11.030;2023-12-14T13:54:54;101233.22;;;10.24;100.00
55077;BME280;40971;44.702;11.030;2023-12-14T14:04:57;101242.38;;;10.20;100.00
55077;BME280;40971;44.702;11.030;2023-12-14T14:14:59;101244.72;;;10.40;100.00
55077;BME280;40971;44.702;11.030;2023-12-14T14:25:00;101277.81;;;10.33;100.00
55077;BME280;40971;44.702;11.030;2023-12-14T14:35:03;101279.81;;;10.22;100.00
55077;BME280;40971;44.702;11.030;2023-12-14T14:45:05;101300.53;;;9.98;100.00
55077;BME280;40971;44.702;11.030;2023-12-14T14:55:10;101290.38;;;9.75;100.00
55077;BME280;40971;44.702;11.030;2023-12-14T15:05:14;101321.16;;;9.27;100.00
55077;BME280;40971;44.702;11.030;2023-12-14T15:15:19;101347.13;;;9.11;100.00
55077;BME280;40971;44.702;11.030;2023-12-14T15:25:20;101374.28;;;8.91;100.00
55077;BME280;40971;44.702;11.030;2023-12-14T15:35:22;101373.41;;;8.61;100.00
55077;BME280;40971;44.702;11.030;2023-12-14T15:45:24;101396.47;;;8.07;100.00
55077;BME280;40971;44.702;11.030;2023-12-14T15:55:28;101407.47;;;7.59;100.00
55077;BME280;40971;44.702;11.030;2023-12-14T16:05:34;101417.94;;;7.59;100.00
55077;BME280;40971;44.702;11.030;2023-12-14T16:15:37;101433.00;;;7.46;100.00
55077;BME280;40971;44.702;11.030;2023-12-14T16:25:39;101460.44;;;7.20;100.00
55077;BME280;40971;44.702;11.030;2023-12-14T16:35:40;101474.53;;;6.86;100.00
55077;BME280;40971;44.702;11.030;2023-12-14T16:45:42;101489.91;;;6.00;100.00
55077;BME280;40971;44.702;11.030;2023-12-14T16:55:44;101517.03;;;6.55;100.00
55077;BME280;40971;44.702;11.030;2023-12-14T17:05:47;101537.59;;;6.02;100.00
55077;BME280;40971;44.702;11.030;2023-12-14T17:15:50;101541.25;;;5.76;100.00
55077;BME280;40971;44.702;11.030;2023-12-14T17:25:52;101572.00;;;5.60;100.00
55077;BME280;40971;44.702;11.030;2023-12-14T17:35:54;101584.63;;;5.53;100.00
55077;BME280;40971;44.702;11.030;2023-12-14T17:45:57;101606.25;;;5.55;100.00
55077;BME280;40971;44.702;11.030;2023-12-14T17:56:00;101627.63;;;5.48;100.00
55077;BME280;40971;44.702;11.030;2023-12-14T18:06:04;101652.69;;;5.38;100.00
55077;BME280;40971;44.702;11.030;2023-12-14T18:16:07;101661.50;;;5.60;100.00
55077;BME280;40971;44.702;11.030;2023-12-14T18:26:10;101684.78;;;5.63;100.00
55077;BME280;40971;44.702;11.030;2023-12-14T18:36:12;101700.44;;;5.63;100.00
55077;BME280;40971;44.702;11.030;2023-12-14T18:46:15;101722.56;;;5.58;100.00
55077;BME280;40971;44.702;11.030;2023-12-14T18:56:17;101754.78;;;5.57;100.00
55077;BME280;40971;44.702;11.030;2023-12-14T19:06:20;101771.56;;;5.40;100.00
55077;BME280;40971;44.702;11.030;2023-12-14T19:16:24;101768.22;;;5.25;100.00
55077;BME280;40971;44.702;11.030;2023-12-14T19:26:27;101780.94;;;5.17;100.00
55077;BME280;40971;44.702;11.030;2023-12-14T19:36:30;101801.53;;;4.95;100.00
55077;BME280;40971;44.702;11.030;2023-12-14T19:46:34;101821.06;;;4.76;100.00
55077;BME280;40971;44.702;11.030;2023-12-14T19:56:37;101821.59;;;5.07;100.00
55077;BME280;40971;44.702;11.030;2023-12-14T20:06:39;101833.47;;;5.11;100.00
55077;BME280;40971;44.702;11.030;2023-12-14T20:16:45;101859.91;;;5.05;100.00
55077;BME280;40971;44.702;11.030;2023-12-14T20:26:49;101869.56;;;4.64;100.00
55077;BME280;40971;44.702;11.030;2023-12-14T20:36:52;101901.41;;;4.41;100.00
55077;BME280;40971;44.702;11.030;2023-12-14T20:46:54;101905.09;;;4.65;100.00
55077;BME280;40971;44.702;11.030;2023-12-14T20:56:56;101904.19;;;4.66;100.00
55077;BME280;40971;44.702;11.030;2023-12-14T21:06:59;101908.06;;;4.59;100.00
55077;BME280;40971;44.702;11.030;2023-12-14T21:17:03;101932.38;;;4.45;100.00
55077;BME280;40971;44.702;11.030;2023-12-14T21:27:04;101944.91;;;4.53;100.00
55077;BME280;40971;44.702;11.030;2023-12-14T21:37:25;101950.97;;;4.25;100.00
55077;BME280;40971;44.702;11.030;2023-12-14T21:47:28;101961.47;;;4.38;100.00
55077;BME280;40971;44.702;11.030;2023-12-14T21:57:32;101989.34;;;4.07;100.00
55077;BME280;40971;44.702;11.030;2023-12-14T22:07:34;102001.91;;;3.85;100.00
55077;BME280;40971;44.702;11.030;2023-12-14T22:17:37;102029.47;;;4.03;100.00
55077;BME280;40971;44.702;11.030;2023-12-14T22:27:41;102025.78;;;4.07;100.00
55077;BME280;40971;44.702;11.030;2023-12-14T22:37:43;102031.38;;;4.16;100.00
55077;BME280;40971;44.702;11.030;2023-12-14T22:47:46;102008.72;;;3.42;100.00
55077;BME280;40971;44.702;11.030;2023-12-14T22:57:51;102030.78;;;2.71;100.00
55077;BME280;40971;44.702;11.030;2023-12-14T23:07:54;102049.78;;;2.39;100.00
55077;BME280;40971;44.702;11.030;2023-12-14T23:17:57;102069.00;;;2.52;100.00
55077;BME280;40971;44.702;11.030;2023-12-14T23:27:59;102056.13;;;2.51;100.00
55077;BME280;40971;44.702;11.030;2023-12-14T23:38:01;102068.72;;;1.90;100.00
55077;BME280;40971;44.702;11.030;2023-12-14T23:48:03;102087.03;;;2.04;100.00
55077;BME280;40971;44.702;11.030;2023-12-14T23:58:08;102108.34;;;1.74;100.00
